Tiempo atmosférico en la estación meteorológica de Sta.Cruz de Tenerife, Santa Cruz de Tenerife (35 m.)



Fecha
DESCASC
Temp. máxima en grados centígrados (hora)
DESCASC
Temp. mínima en grados centígrados (hora)
DESCASC
Temp. media en grados centígrados
DESCASC
Racha de viento máxima en m/sg (hora)
DESCASC
Velocidad máxima media en intervalos de 10 minutos(hora)
DESCASC
Precipitaciones diarias en mm
DESCASC
Precipitaciones de 00:00 a 06:00 en mm
DESCASC
Precipitaciones de 06:00 a 12:00 en mm
DESCASC
Precipitaciones de 12:00 a 18:00 en mm
DESCASC
Precipitaciones de 18:00 a 24:00 en mm
DESCASC
07-01-2021 25.4 (14:50) 18.1 (00:00) 21.8 -- (--) -- (--) 0 0 0 0 0
06-01-2021 24.1 (14:00) 18.3 (00:00) 21.2 -- (--) -- (--) 0 0 0 0 0
22-01-2021 23.7 (12:40) 16.6 (00:00) 20.2 8.61 (14:00) 4.72 (14:40) 0 0 0 0 0
05-01-2021 23.7 (13:40) 18.1 (00:00) 20.9 10.83 (05:10) 6.67 (05:30) 0 0 0 0 0
28-12-2020 23 (14:00) 16.6 (00:00) 19.8 8.61 (18:30) 4.72 (16:00) 0 0 0 0 0
21-01-2021 23 (15:00) 15.3 (00:00) 19.2 7.78 (23:00) 3.33 (14:10) 0 0 0 0 0
27-12-2020 22.4 (13:40) 18.2 (00:00) 20.3 4.44 (13:20) 2.78 (11:20) 0.2 0.2 0 0 0
26-12-2020 22.1 (12:30) 17.2 (00:00) 19.7 7.22 (17:30) 4.72 (17:20) 0 0 0 0 0
23-01-2021 21.9 (14:50) 17.2 (00:00) 19.6 8.33 (16:00) 5 (16:00) 0 0 0 0 0
24-01-2021 21.8 (15:10) 16.2 (00:00) 19 5 (14:20) 3.06 (12:10) 0 0 0 0 0
29-12-2020 21.4 (14:40) 16.3 (00:00) 18.8 7.22 (18:00) 4.72 (12:50) 0 0 0 0 0
20-01-2021 21.4 (15:20) 14.4 (00:00) 17.9 7.22 (13:00) 3.61 (03:00) 0 0 0 0 0
16-01-2021 21.2 (13:40) 16.8 (00:00) 19 10.28 (14:10) 5.83 (14:00) 0 0 0 0 0
30-12-2020 21 (14:30) 15.2 (00:00) 18.1 8.33 (15:20) 5.28 (14:50) 0 0 0 0 0
31-12-2020 20.9 (13:10) 15.3 (00:00) 18.1 10.28 (14:10) 6.11 (14:10) 0 0 0 0 0
08-01-2021 20.8 (00:10) 14.4 (00:00) 17.6 15 (05:50) 8.33 (13:30) 38.4 4.2 8.6 17.8 7.8
19-01-2021 20.8 (14:00) 14.1 (00:00) 17.4 5.28 (02:00) 4.17 (01:50) 0.1 0 0.1 0 0
17-01-2021 20.6 (14:10) 15.3 (00:00) 18 7.5 (09:50) 4.72 (11:10) 0 0 0 0 0
18-01-2021 20.5 (15:50) 14 (00:00) 17.3 6.39 (12:30) 4.72 (07:30) 0 0 0 0 0
10-01-2021 20.4 (14:40) 14.5 (02:30) 17.4 13.89 (13:00) 6.67 (14:00) 3.4 0 0 1.4 2
12-01-2021 20.3 (13:40) 14 (00:00) 17.1 8.61 (04:00) 4.44 (15:30) 2 0 0.2 1.8 0
13-01-2021 20.2 (14:50) 14.2 (00:00) 17.2 8.61 (17:10) 4.17 (14:50) 2.4 2.4 0 0 0
01-01-2021 20 (12:30) 16.2 (00:00) 18.1 7.5 (12:40) 4.44 (12:40) 0 0 0 0 0
14-01-2021 19.9 (16:40) 14.6 (01:10) 17.3 8.06 (15:00) 4.44 (15:00) 0 0 0 0 0
03-01-2021 19.8 (14:50) 16.6 (00:00) 18.2 6.11 (01:20) 3.89 (01:10) 0 0 0 0 0
02-01-2021 19.8 (12:40) 15.8 (00:00) 17.8 7.22 (15:30) 4.17 (18:00) 0 0 0 0 0
04-01-2021 19.7 (17:40) 16.6 (00:00) 18.2 11.67 (15:50) 6.11 (15:50) 0 0 0 0 0
15-01-2021 19.4 (15:20) 16.4 (00:00) 17.9 10.28 (00:20) 4.44 (14:40) 0 0 0 0 0
11-01-2021 19 (12:40) 14.3 (00:00) 16.7 10.56 (11:40) 5.83 (14:00) 3.2 0.6 0 1.4 1.2
09-01-2021 18.3 (14:10) 13.2 (00:00) 15.7 15.83 (17:10) 8.33 (17:10) -- -- -- -- --

Gráficas

Temp. máximas Temp. mínimas Temp. medias Precipitaciones Rachas de viento máximas Velocidades máximas media en intervalos de 10 minutos

Datos horarios

Fecha y hora oficial Temperatura (ºC) Velocidad del viento (km/h) Dirección del viento Racha (km/h) Dirección de racha Precipitación (mm) Presión (hPa) Tendencia (hPa) Humedad (%)
2021-01-24 23:00:00 17.1 5 Oeste 9 Oeste 0 1017.6 -- 81
2021-01-24 22:00:00 17.6 4 Oeste 7 Nordeste 0 1017.3 -- 85
2021-01-24 21:00:00 18.3 6 Nordeste 10 Nordeste 0 1017.1 -- 88
2021-01-24 20:00:00 18.5 5 Este 11 Nordeste 0 1016.5 -- 87
2021-01-24 19:00:00 18.8 5 Este 12 Este 0 1016 -- 85
2021-01-24 18:00:00 19.3 7 Este 14 Este 0 1015.8 -- 82
2021-01-24 17:00:00 20.1 8 Este 17 Este 0 1015.8 -- 78
2021-01-24 16:00:00 21.4 10 Este 17 Este 0 1015.8 -- 73
2021-01-24 15:00:00 21.4 11 Este 18 Este 0 1016.2 -- 72
2021-01-24 14:00:00 20.9 11 Nordeste 18 Nordeste 0 1016.6 -- 73
2021-01-24 13:00:00 20.9 10 Nordeste 17 Nordeste 0 1017.3 -- 73
2021-01-24 12:00:00 20.8 9 Este 15 Este 0 1018.1 -- 75
2021-01-24 11:00:00 20 6 Nordeste 14 Nordeste 0 1018.2 -- 70
2021-01-24 10:00:00 19.3 5 Este 9 Nordeste 0 1018 -- 73
2021-01-24 09:00:00 17.3 4 Noroeste 8 Noroeste 0 1017.4 -- 63
2021-01-24 08:00:00 16.4 5 Noroeste 13 Oeste 0 1016.9 -- 57
2021-01-24 07:00:00 16.5 5 Oeste 8 Noroeste 0 1016.4 -- 61
2021-01-24 06:00:00 16.3 4 Noroeste 10 Oeste 0 1016.4 -- 54
2021-01-24 05:00:00 16.2 6 Oeste 12 Oeste 0 1016.4 -- 64
2021-01-24 04:00:00 16.2 7 Oeste 12 Oeste 0 1017.2 -- 73
2021-01-24 03:00:00 16.6 4 Oeste 10 Oeste 0 1017.5 -- 81
2021-01-24 02:00:00 16.7 5 Noroeste 9 Oeste 0 1018 -- 81
2021-01-24 01:00:00 16.9 7 Oeste 12 Oeste 0 1018.4 -- 79
2021-01-24 00:00:00 17.2 4 Norte 8 Oeste 0 1018.9 -- 79
2021-01-23 23:00:00 17.8 6 Norte 13 Norte 0 1019.2 -- 77
2021-01-23 22:00:00 18.1 5 Este 11 Sudeste 0 1019.3 -- 76
2021-01-23 21:00:00 18.3 4 Nordeste 18 Este 0 1019.1 -- 75
2021-01-23 20:00:00 18.6 9 Este 18 Este 0 1019.1 -- 75
2021-01-23 19:00:00 18.7 10 Este 19 Este 0 1018.4 -- 74
2021-01-23 18:00:00 19 13 Este 24 Este 0 1018.1 -- 73
2021-01-23 17:00:00 19.9 15 Este 24 Este 0 1017.7 -- 70
2021-01-23 16:00:00 20.8 18 Este 30 Este 0 1017.6 -- 68
2021-01-23 15:00:00 21.4 14 Este 27 Este 0 1017.9 -- 68
2021-01-23 14:00:00 21.5 13 Este 26 Este 0 1018.3 -- 69
2021-01-23 13:00:00 21 14 Este 23 Este 0 1019.2 -- 68
2021-01-23 12:00:00 20.2 13 Este 24 Este 0 1020.3 -- 73
2021-01-23 11:00:00 19.7 11 Este 24 Este 0 1020.9 -- 75
2021-01-23 10:00:00 20.3 10 Este 20 Este 0 1020.3 -- 71
2021-01-23 09:00:00 17.6 9 Oeste 17 Oeste 0 1019.7 -- 82
2021-01-23 08:00:00 17.8 6 Norte 8 Norte 0 1019.2 -- 84
2021-01-23 07:00:00 18 4 Norte 9 Norte 0 1019.1 -- 87
2021-01-23 06:00:00 18.2 5 Nordeste 13 Este 0 1018.7 -- 87
2021-01-23 05:00:00 18.1 5 Nordeste 16 Este 0 1018.8 -- 90
2021-01-23 04:00:00 18.3 6 Este 15 Nordeste 0 1019.6 -- 91
2021-01-23 03:00:00 18.3 5 Este 17 Nordeste 0 1020 -- 92
2021-01-23 02:00:00 18.2 10 Este 19 Nordeste 0 1020.5 -- 95
2021-01-23 01:00:00 18.7 4 Este 21 Nordeste 0 1021.1 -- 91
2021-01-23 00:00:00 18.7 8 Nordeste 19 Nordeste 0 1021.4 -- 90
2021-01-22 23:00:00 18.7 3 Nordeste 9 Norte 0 1021.6 -- 87
2021-01-22 22:00:00 18.8 6 Nordeste 18 Nordeste 0 1021.4 -- 87
2021-01-22 21:00:00 19.1 6 Este 20 Este 0 1021.2 -- 85
2021-01-22 20:00:00 19.4 14 Este 21 Este 0 1020.7 -- 85
2021-01-22 19:00:00 20.2 10 Nordeste 25 Nordeste 0 1020.4 -- 74
2021-01-22 18:00:00 20.8 11 Nordeste 26 Nordeste 0 1020 -- 70
2021-01-22 17:00:00 22.3 14 Nordeste 26 Nordeste 0 1019.6 -- 62
2021-01-22 16:00:00 23.3 13 Nordeste 27 Este 0 1019.4 -- 60
2021-01-22 15:00:00 23 15 Este 29 Nordeste 0 1019.3 -- 62
2021-01-22 14:00:00 23 16 Nordeste 31 Nordeste 0 1019.8 -- 61
2021-01-22 13:00:00 23.6 12 Este 26 Nordeste 0 1020.3 -- 57
2021-01-22 12:00:00 22.8 12 Este 21 Este 0 1020.9 -- 60
2021-01-22 11:00:00 21.3 5 Este 10 Este 0 1021.5 -- 66
2021-01-22 10:00:00 20.8 3 Sur 6 Oeste 0 1021.4 -- 69
2021-01-22 09:00:00 17.8 7 Oeste 13 Oeste 0 1020.9 -- 80
2021-01-22 08:00:00 16.6 4 Noroeste 9 Oeste 0 1020.2 -- 85
2021-01-22 07:00:00 16.9 7 Sudoeste 9 Sudoeste 0 1020 -- 86
2021-01-22 06:00:00 16.9 10 Oeste 12 Oeste 0 1020 -- 86
2021-01-22 05:00:00 17.3 3 Sudoeste 9 Nordeste 0 1019.8 -- 85
2021-01-22 04:00:00 17.4 4 Noroeste 9 Oeste 0 1020.2 -- 85
2021-01-22 03:00:00 17.8 4 Oeste 5 Oeste 0 1020.3 -- 85
2021-01-22 02:00:00 18.1 4 Sudeste 7 Oeste 0 1020.5 -- 84
2021-01-22 01:00:00 18.5 3 Sur 8 Sudoeste 0 1020.9 -- 82
2021-01-22 00:00:00 18.9 3 Sudeste 21 Norte 0 1020.8 -- 79
2021-01-21 23:00:00 19.3 10 Norte 28 Norte 0 1020.9 -- 77
2021-01-21 22:00:00 18.7 6 Oeste 11 Norte 0 1020.6 -- 79
2021-01-21 21:00:00 19.2 8 Norte 22 Oeste 0 1020.3 -- 77
2021-01-21 20:00:00 18.9 2 Este 5 Sur 0 1019.6 -- 76
2021-01-21 19:00:00 19.5 3 Sur 8 Sur 0 1019.2 -- 76
2021-01-21 18:00:00 20.5 4 Sur 10 Sur 0 1018.8 -- 70
2021-01-21 17:00:00 21.9 6 Sur 12 Sudeste 0 1018.8 -- 64
2021-01-21 16:00:00 22.4 6 Sur 15 Sur 0 1018.5 -- 64
2021-01-21 15:00:00 22.7 8 Sur 17 Sur 0 1018.6 -- 63
2021-01-21 14:00:00 22.4 10 Sur 15 Sur 0 1019.3 -- 63
2021-01-21 13:00:00 22.2 9 Sur 15 Sur 0 1020 -- 61
2021-01-21 12:00:00 20.3 7 Sur 13 Sur 0 1020.7 -- 67
2021-01-21 11:00:00 19.7 8 Sur 15 Sur 0 1020.8 -- 71
2021-01-21 10:00:00 19.9 3 Este 5 Nordeste 0 1020.3 -- 67
2021-01-21 09:00:00 16.3 4 Oeste 9 Oeste 0 1019.9 -- 80
2021-01-21 08:00:00 15.4 6 Oeste 13 Oeste 0 1019.3 -- 82
2021-01-21 07:00:00 15.4 7 Oeste 12 Oeste 0 1019 -- 84
2021-01-21 06:00:00 15.8 6 Oeste 14 Oeste 0 1018.7 -- 84
2021-01-21 05:00:00 15.9 6 Oeste 13 Oeste 0 1018.6 -- 84
2021-01-21 04:00:00 15.9 7 Oeste 10 Oeste 0 1018.7 -- 83
2021-01-21 03:00:00 16 0 Calma 10 Oeste 0 1018.4 -- 82
2021-01-21 02:00:00 15.9 4 Oeste 7 Oeste 0 1018.3 -- 83
2021-01-21 01:00:00 15.9 5 Noroeste 7 Oeste 0 1018.1 -- 82
2021-01-21 00:00:00 16 0 Calma 7 Norte 0 1018.1 -- 81
2021-01-20 23:00:00 16.3 4 Norte 8 Norte 0 1018.7 -- 79
2021-01-20 22:00:00 16.4 0 Calma 5 Norte 0 1018.8 -- 80
2021-01-20 21:00:00 16.6 0 Calma 4 Norte 0 1018.5 -- 79
2021-01-20 20:00:00 17.1 2 Este 6 Este 0 1018 -- 77
2021-01-20 19:00:00 17.7 3 Este 9 Sur 0 1017.5 -- 74
2021-01-20 18:00:00 18.6 6 Sudeste 11 Sudeste 0 1017.4 -- 70
2021-01-20 17:00:00 19.3 7 Sudeste 15 Sudeste 0 1017.2 -- 66
2021-01-20 16:00:00 19.6 8 Sudeste 17 Sudeste 0 1017.3 -- 66
2021-01-20 15:00:00 20.9 8 Sudeste 15 Sudeste 0 1017.3 -- 61
2021-01-20 14:00:00 20.8 7 Sudeste 23 Sudoeste 0 1017.7 -- 59
2021-01-20 13:00:00 20.6 10 Oeste 26 Oeste 0 1018.3 -- 57
2021-01-20 12:00:00 19.2 9 Sur 18 Sur 0 1019 -- 62
2021-01-20 11:00:00 18.5 9 Sur 19 Sur 0 1019 -- 62
2021-01-20 10:00:00 18.6 4 Sudeste 7 Sudeste 0 1018.4 -- 62
2021-01-20 09:00:00 15.3 4 Oeste 17 Oeste 0 1018.2 -- 73
2021-01-20 08:00:00 14.7 9 Oeste 17 Oeste 0 1018.3 -- 74
2021-01-20 07:00:00 14.7 7 Noroeste 11 Noroeste 0 1017.8 -- 75
2021-01-20 06:00:00 14.8 6 Oeste 17 Oeste 0 1017.6 -- 75
2021-01-20 05:00:00 15.3 11 Oeste 20 Noroeste 0 1017.6 -- 72
2021-01-20 04:00:00 15.1 9 Oeste 22 Oeste 0 1017.6 -- 72
2021-01-20 03:00:00 15.3 13 Oeste 19 Oeste 0 1017.8 -- 70
2021-01-20 02:00:00 15.3 11 Oeste 18 Oeste 0 1018.1 -- 72
2021-01-20 01:00:00 15.7 11 Oeste 16 Oeste 0 1018.1 -- 75
2021-01-20 00:00:00 16 12 Oeste 17 Oeste 0 1018.4 -- 74
2021-01-19 23:00:00 16.2 10 Oeste 17 Oeste 0 1018.7 -- 74
2021-01-19 22:00:00 16.5 10 Oeste 15 Oeste 0 1018.8 -- 74
2021-01-19 21:00:00 17.1 5 Oeste 8 Oeste 0 1018.6 -- 75
2021-01-19 20:00:00 17.4 3 Sudoeste 11 Sudoeste 0 1018.2 -- 74
2021-01-19 19:00:00 18.2 4 Sudeste 16 Oeste 0 1018 -- 71
2021-01-19 18:00:00 18.5 8 Sudoeste 18 Oeste 0 1018.1 -- 70
2021-01-19 17:00:00 19.3 4 Este 13 Este 0 1018 -- 67
2021-01-19 16:00:00 19.8 5 Sudeste 16 Sudeste 0 1017.8 -- 67
2021-01-19 15:00:00 19.7 11 Sudeste 18 Este 0 1018 -- 66
2021-01-19 14:00:00 20.8 11 Este 19 Este 0 1018.7 -- 56
2021-01-19 13:00:00 20 9 Este 15 Sudeste 0 1019.6 -- 59
2021-01-19 12:00:00 19.1 6 Sudeste -- -- -- 1020.5 -- 64
2021-01-19 11:00:00 18.3 6 Sudeste 12 Sudeste 0 1020.8 -- 66
2021-01-19 10:00:00 18.1 3 Sudeste 10 Oeste 0 1020.6 -- 64
2021-01-19 09:00:00 14.9 8 Oeste 16 Oeste 0 1020.2 -- 77
2021-01-19 08:00:00 14.4 12 Oeste 17 Oeste 0 1020.1 -- 77
2021-01-19 07:00:00 14.7 10 Oeste 17 Oeste 0 1019.8 -- 78
2021-01-19 06:00:00 14.3 9 Oeste 15 Oeste 0 1019.2 -- 77
2021-01-19 05:00:00 14.1 10 Oeste 15 Oeste 0 1019.1 -- 75
2021-01-19 04:00:00 14.3 10 Oeste 18 Oeste 0 1019.8 -- 74
2021-01-19 03:00:00 14.4 14 Oeste 18 Oeste 0 1020.2 -- 73
2021-01-19 02:00:00 14.6 15 Oeste 19 Oeste 0 1020.5 -- 71
2021-01-19 01:00:00 14.9 11 Oeste 17 Oeste 0 1020.9 -- 71
2021-01-19 00:00:00 15.2 9 Oeste 15 Oeste 0 1021.3 -- 71
2021-01-18 23:00:00 15.7 9 Oeste 14 Oeste 0 1021.6 -- 70
2021-01-18 22:00:00 15.9 7 Oeste 10 Oeste 0 1021.6 -- 72
2021-01-18 21:00:00 16.6 4 Noroeste 7 Noroeste 0 1021.2 -- 72
2021-01-18 20:00:00 17.6 2 Norte 18 Este 0 1020.9 -- 71
2021-01-18 19:00:00 17.9 8 Este 16 Este 0 1020.4 -- 70
2021-01-18 18:00:00 18.2 9 Este 14 Este 0 1020 -- 67
2021-01-18 17:00:00 19.3 8 Este 18 Este 0 1019.7 -- 62
2021-01-18 16:00:00 20 11 Este 21 Este 0 1019.3 -- 60
2021-01-18 15:00:00 20.1 11 Este 19 Este 0 1019.3 -- 58
2021-01-18 14:00:00 20.3 11 Este 19 Este 0 1019.8 -- 58
2021-01-18 13:00:00 19.8 13 Este 23 Este 0 1020.4 -- 59
2021-01-18 12:00:00 19.4 12 Este 23 Este 0 1021.3 -- 62
2021-01-18 11:00:00 18.5 11 Este 18 Este 0 1021.6 -- 65
2021-01-18 10:00:00 18.1 5 Nordeste 12 Oeste 0 1021.1 -- 62
2021-01-18 09:00:00 14.9 10 Oeste 19 Oeste 0 1020.7 -- 73
2021-01-18 08:00:00 14.1 13 Oeste 22 Oeste 0 1020.3 -- 73
2021-01-18 07:00:00 14.1 10 Oeste 20 Oeste 0 1019.9 -- 72
2021-01-18 06:00:00 14.3 13 Oeste 19 Oeste 0 1019.6 -- 73
2021-01-18 05:00:00 14.4 11 Oeste 16 Oeste 0 1019.4 -- 74
2021-01-18 04:00:00 14.6 12 Oeste 16 Oeste 0 1019.8 -- 75
2021-01-18 03:00:00 14.9 6 Oeste 13 Oeste 0 1019.8 -- 74
2021-01-18 02:00:00 15.7 6 Oeste 11 Oeste 0 1020.2 -- 71
2021-01-18 01:00:00 15.8 5 Oeste 10 Oeste 0 1020.4 -- 71
2021-01-18 00:00:00 15.3 6 Oeste 10 Oeste 0 1020.6 -- 73
2021-01-17 23:00:00 15.5 8 Oeste 14 Oeste 0 1021 -- 70
2021-01-17 22:00:00 16 7 Oeste 10 Norte 0 1020.7 -- 70
2021-01-17 21:00:00 16.8 6 Nordeste 12 Nordeste 0 1020.2 -- 68
2021-01-17 20:00:00 17 8 Norte 15 Nordeste 0 1020.5 -- 64
2021-01-17 19:00:00 17.8 10 Nordeste 18 Nordeste 0 1020.2 -- 62
2021-01-17 18:00:00 18.2 10 Este 20 Este 0 1020.1 -- 63
2021-01-17 17:00:00 18.7 13 Este 23 Este 0 1019.7 -- 61
2021-01-17 16:00:00 19.9 12 Este 22 Este 0 1019.6 -- 57
2021-01-17 15:00:00 19.7 12 Este 21 Este 0 1019.7 -- 57
2021-01-17 14:00:00 20.4 14 Este 24 Sudeste 0 1020.1 -- 55
2021-01-17 13:00:00 20 9 Este 24 Este 0 1021 -- 53
2021-01-17 12:00:00 19.4 14 Este 25 Este 0 1021.7 -- 56
2021-01-17 11:00:00 19 14 Este 23 Este 0 1021.9 -- 57
2021-01-17 10:00:00 18.6 13 Este 27 Nordeste 0 1021.7 -- 56
2021-01-17 09:00:00 17.7 5 Nordeste 15 Este 0 1021.2 -- 60
2021-01-17 08:00:00 17.2 8 Nordeste 18 Nordeste 0 1020.6 -- 59
2021-01-17 07:00:00 17.1 8 Norte 17 Nordeste 0 1020.2 -- 59
2021-01-17 06:00:00 17 6 Norte 23 Este 0 1019.8 -- 60
2021-01-17 05:00:00 17.1 6 Nordeste 21 Nordeste 0 1019.6 -- 60
2021-01-17 04:00:00 17.1 9 Nordeste 23 Nordeste 0 1019.8 -- 59
2021-01-17 03:00:00 17.4 8 Nordeste 16 Noroeste 0 1020 -- 58
2021-01-17 02:00:00 17.5 7 Nordeste 26 Nordeste 0 1020.1 -- 59
2021-01-17 01:00:00 17.8 13 Este 23 Este 0 1020.3 -- 60
2021-01-17 00:00:00 17.9 5 Norte 16 Norte 0 1020.6 -- 58
2021-01-16 23:00:00 17.8 4 Nordeste 15 Nordeste 0 1020.6 -- 64
2021-01-16 22:00:00 17.9 5 Nordeste 17 Norte 0 1020.7 -- 59
2021-01-16 21:00:00 17.5 8 Norte 16 Norte 0 1020.5 -- 57
2021-01-16 20:00:00 18 6 Nordeste 17 Nordeste 0 1020.2 -- 57
2021-01-16 19:00:00 18.1 7 Nordeste 25 Nordeste 0 1020.2 -- 55
2021-01-16 18:00:00 18.6 15 Este 30 Nordeste 0 1019.8 -- 58
2021-01-16 17:00:00 19.5 16 Este 33 Este 0 1019.2 -- 58
2021-01-16 16:00:00 19.7 15 Este 30 Este 0 1019.1 -- 51
2021-01-16 15:00:00 19.3 21 Este 37 Este 0 1019.3 -- 60
2021-01-16 14:00:00 20.4 21 Este 33 Este 0 1019.5 -- 61
2021-01-16 13:00:00 20.1 12 Este 35 Este 0 1020.3 -- 56
2021-01-16 12:00:00 19.5 10 Nordeste 26 Nordeste 0 1021.3 -- 58
2021-01-16 11:00:00 19 9 Este 21 Este 0 1021.8 -- 61
2021-01-16 10:00:00 18.9 5 Nordeste 16 Nordeste 0 1021.4 -- 53
2021-01-16 09:00:00 17.3 5 Norte 16 Nordeste 0 1020.9 -- 59
2021-01-16 08:00:00 17.3 8 Nordeste 20 Este 0 1020.6 -- 58
2021-01-16 07:00:00 17.2 7 Nordeste 16 Nordeste 0 1020.2 -- 64
2021-01-16 06:00:00 17.1 7 Noroeste 21 Norte 0 1020.1 -- 57
2021-01-16 05:00:00 17.1 10 Nordeste 29 Este 0 1019.9 -- 60
2021-01-16 04:00:00 16.9 9 Nordeste 30 Norte 0 1020 -- 58
2021-01-16 03:00:00 17.1 9 Nordeste 26 Nordeste 0 1020.7 -- 56
2021-01-16 02:00:00 17.2 8 Nordeste 21 Noroeste 0 1021.2 -- 60
2021-01-16 01:00:00 17.2 8 Norte 17 Nordeste 0 1021.1 -- 58
2021-01-16 00:00:00 17.2 10 Norte 28 Nordeste 0 1021.4 -- 55
2021-01-15 23:00:00 17.3 7 Nordeste 21 Nordeste 0 1021.7 -- 58
2021-01-15 22:00:00 17.5 10 Nordeste 23 Norte 0 1021.5 -- 57
2021-01-15 21:00:00 17.5 8 Norte 26 Norte 0 1021.4 -- 60
2021-01-15 20:00:00 17.6 9 Nordeste 18 Nordeste 0 1021.3 -- 61
2021-01-15 19:00:00 17.7 10 Nordeste 19 Norte 0 1021.1 -- 63
2021-01-15 18:00:00 17.9 9 Norte 19 Nordeste 0 1021.1 -- 57
2021-01-15 17:00:00 17.8 8 Nordeste 24 Nordeste 0 1020.7 -- 66
2021-01-15 16:00:00 18.8 13 Norte 25 Norte 0 1020.4 -- 54
2021-01-15 15:00:00 18.8 11 Nordeste 33 Nordeste 0 1020.8 -- 50
2021-01-15 14:00:00 19 6 Nordeste 15 Nordeste 0 1021.3 -- 51
2021-01-15 13:00:00 18.2 7 Norte 30 Este 0 1022.3 -- 60
2021-01-15 12:00:00 18.2 5 Nordeste 13 Nordeste 0 1023.2 -- 57
2021-01-15 11:00:00 17.7 5 Nordeste 13 Nordeste 0 1023.6 -- 59
2021-01-15 10:00:00 17.4 5 Norte 24 Norte 0 1022.8 -- 55
2021-01-15 09:00:00 16.5 7 Norte 19 Norte 0 1022.4 -- 56
2021-01-15 08:00:00 16.5 9 Norte 26 Norte 0 1022.2 -- 58
2021-01-15 07:00:00 16.5 9 Norte 23 Norte 0 1021.9 -- 57
2021-01-15 06:00:00 16.5 7 Norte 21 Nordeste 0 1021.7 -- 55
2021-01-15 05:00:00 16.6 12 Nordeste 22 Nordeste 0 1022.1 -- 55
2021-01-15 04:00:00 16.7 8 Norte 24 Nordeste 0 1021.9 -- 57
2021-01-15 03:00:00 16.8 8 Nordeste 22 Nordeste 0 1021.9 -- 62
2021-01-15 02:00:00 16.7 9 Nordeste 22 Nordeste 0 1022 -- 59
2021-01-15 01:00:00 17 10 Norte 37 Nordeste 0 1022.5 -- 66
2021-01-15 00:00:00 16.5 5 Norte 11 Norte 0 1022.8 -- 63
2021-01-14 23:00:00 16.3 6 Norte 16 Norte 0 1023 -- 61
2021-01-14 22:00:00 16.6 7 Norte 19 Norte 0 1023.1 -- 58
2021-01-14 21:00:00 16.9 8 Norte 13 Norte 0 1022.6 -- 60
2021-01-14 20:00:00 17.3 6 Norte 15 Este 0 1022.3 -- 60
2021-01-14 19:00:00 17.6 8 Nordeste 23 Nordeste 0 1022.4 -- 62
2021-01-14 18:00:00 18.1 8 Nordeste 22 Este 0 1022.2 -- 59
2021-01-14 17:00:00 18.9 13 Este 27 Nordeste 0 1022 -- 55
2021-01-14 16:00:00 19.4 12 Este 21 Nordeste 0 1021.7 -- 53
2021-01-14 15:00:00 18 16 Este 29 Este 0 1022 -- 59
2021-01-14 14:00:00 18.6 12 Este 26 Este 0 1022.6 -- 57
2021-01-14 13:00:00 18.3 10 Nordeste 23 Este 0 1023.4 -- 61
2021-01-14 12:00:00 18.2 12 Nordeste 23 Este 0 1024.4 -- 59
2021-01-14 11:00:00 18.3 10 Nordeste 21 Este 0 1024.6 -- 59
2021-01-14 10:00:00 17.2 6 Norte 12 Nordeste 0 1024 -- 65
2021-01-14 09:00:00 16.1 6 Norte 12 Noroeste 0 1023.5 -- 69
2021-01-14 08:00:00 15.4 8 Oeste 15 Oeste 0 1023.1 -- 69
2021-01-14 07:00:00 14.8 10 Oeste 14 Oeste 0 1022.7 -- 71
2021-01-14 06:00:00 14.9 6 Noroeste 12 Oeste 0 1022.5 -- 71
2021-01-14 05:00:00 14.7 9 Oeste 14 Oeste 0 1022.5 -- 71
2021-01-14 04:00:00 14.9 6 Noroeste 13 Norte 0 1022.6 -- 69
2021-01-14 03:00:00 14.9 6 Oeste 12 Oeste 0 1022.8 -- 68
2021-01-14 02:00:00 14.7 8 Oeste 14 Noroeste 0 1023 -- 65
2021-01-14 01:00:00 14.7 8 Oeste 13 Oeste 0 1023.3 -- 65
2021-01-14 00:00:00 14.9 5 Noroeste 9 Noroeste 0 1023.7 -- 65
2021-01-13 23:00:00 15.6 4 Oeste 10 Norte 0 1023.9 -- 64
2021-01-13 22:00:00 16.5 9 Norte 15 Noroeste 0 1023.7 -- 59
2021-01-13 21:00:00 16.7 10 Norte 15 Norte 0 1023.3 -- 59
2021-01-13 20:00:00 17 6 Norte 15 Norte 0 1022.9 -- 59
2021-01-13 19:00:00 17.2 9 Norte 21 Norte 0 1022.4 -- 57
2021-01-13 18:00:00 18 9 Norte 31 Nordeste 0 1022 -- 56
2021-01-13 17:00:00 18.7 9 Norte 23 Norte 0 1021.8 -- 54
2021-01-13 16:00:00 20 13 Norte 29 Norte 0 1021.5 -- 49
2021-01-13 15:00:00 20.1 13 Norte 26 Este 0 1021.5 -- 51
2021-01-13 14:00:00 19.6 12 Nordeste 28 Nordeste 0 1021.7 -- 56
2021-01-13 13:00:00 19.3 12 Nordeste 24 Nordeste 0 1022 -- 56
2021-01-13 12:00:00 18.1 8 Nordeste 17 Este 0 1023.2 -- 65
2021-01-13 11:00:00 18 8 Norte 14 Norte 0 1023.5 -- 66
2021-01-13 10:00:00 16.9 8 Nordeste 13 Nordeste 0 1023.2 -- 66
2021-01-13 09:00:00 15.9 7 Norte 12 Nordeste 0 1022.4 -- 75
2021-01-13 08:00:00 15.1 4 Norte 27 Noroeste 0 1021.8 -- 80
2021-01-13 07:00:00 14.8 6 Oeste 15 Nordeste 0 1021.3 -- 82
2021-01-13 06:00:00 14.5 6 Nordeste 13 Nordeste 0 1021.2 -- 88
2021-01-13 05:00:00 14.3 4 Oeste 10 Oeste 0.8 1020.7 -- 91
2021-01-13 04:00:00 14.7 9 Oeste 12 Oeste 0.8 1020.8 -- 84
2021-01-13 03:00:00 15.2 3 Sudeste 12 Norte 0.6 1020.8 -- 77
2021-01-13 02:00:00 15.5 4 Norte 12 Oeste 0.2 1021.2 -- 80
2021-01-13 01:00:00 16.1 7 Oeste 15 Noroeste 0 1021.2 -- 74
2021-01-13 00:00:00 16.5 4 Noroeste 11 Nordeste 0 1021.4 -- 69
2021-01-12 23:00:00 16.7 10 Nordeste 19 Norte 0 1021.3 -- 66
2021-01-12 22:00:00 16 6 Norte 16 Norte 0 1021.3 -- 72
2021-01-12 21:00:00 16.7 7 Nordeste 15 Norte 0 1020.8 -- 66
2021-01-12 20:00:00 16.5 8 Nordeste 15 Nordeste 0 1020.2 -- 66
2021-01-12 19:00:00 16.5 7 Nordeste 19 Norte 0 1019.6 -- 65
2021-01-12 18:00:00 16.9 5 Norte 15 Nordeste 0 1019.3 -- 65
2021-01-12 17:00:00 17 3 Nordeste 9 Oeste 0.2 1018.9 -- 73
2021-01-12 16:00:00 16 3 Este 27 Norte 1.6 1019.1 -- 83
2021-01-12 15:00:00 19.3 11 Norte 28 Nordeste 0 1018.6 -- 55
2021-01-12 14:00:00 19.9 13 Norte 28 Nordeste 0 1019 -- 51
2021-01-12 13:00:00 19.9 12 Nordeste 25 Nordeste 0 1019.7 -- 49
2021-01-12 12:00:00 18.9 9 Nordeste 23 Nordeste 0 1020.7 -- 55
2021-01-12 11:00:00 17.8 8 Norte 25 Nordeste 0 1021.3 -- 56
2021-01-12 10:00:00 16.8 4 Oeste 9 Oeste 0 1020.9 -- 65
2021-01-12 09:00:00 14.9 0 Calma 9 Norte 0 1020.1 -- 77
2021-01-12 08:00:00 14.7 5 Norte 21 Oeste 0 1019.3 -- 76
2021-01-12 07:00:00 14.5 10 Oeste 16 Oeste 0.2 1018.9 -- 81
2021-01-12 06:00:00 15.1 6 Norte 13 Nordeste 0 1018.4 -- 71
2021-01-12 05:00:00 14.9 8 Oeste 17 Oeste 0 1018.5 -- 69
2021-01-12 04:00:00 15.3 16 Norte 31 Norte 0 1019.3 -- 68
2021-01-12 03:00:00 14.9 2 Norte 23 Norte 0 1019.3 -- 59
2021-01-12 02:00:00 14.9 9 Norte 23 Norte 0 1019.4 -- 65
2021-01-12 01:00:00 14.2 5 Oeste 10 Noroeste 0 1019.7 -- 81
2021-01-12 00:00:00 14.3 3 Sudoeste 19 Norte 0.6 1020.2 -- 81
2021-01-11 23:00:00 15 6 Norte 21 Nordeste 0 1020.2 -- 71
2021-01-11 22:00:00 14.9 5 Este 19 Este 0.2 1020 -- 79
2021-01-11 21:00:00 15.3 2 Noroeste 24 Norte 0.4 1019.4 -- 74
2021-01-11 20:00:00 16.4 13 Norte 30 Norte 0 1018.6 -- 59
2021-01-11 19:00:00 16.2 12 Norte 25 Norte 0 1018.1 -- 61
2021-01-11 18:00:00 15.7 12 Noroeste 26 Noroeste 0.4 1017.6 -- 67
2021-01-11 17:00:00 16.4 15 Norte 29 Norte 0.2 1017.7 -- 67
2021-01-11 16:00:00 17.4 9 Norte 31 Norte 0 1017.6 -- 55
2021-01-11 15:00:00 16.4 13 Norte 26 Norte 0.6 1017.5 -- 66
2021-01-11 14:00:00 17 21 Norte 32 Norte 0.2 1017.9 -- 64
2021-01-11 13:00:00 18.6 15 Noroeste 33 Norte 0 1018.5 -- 48
2021-01-11 12:00:00 18.2 19 Norte 38 Norte 0 1019.4 -- 46
2021-01-11 11:00:00 17.6 11 Norte 28 Norte 0 1019.9 -- 46
2021-01-11 10:00:00 17.1 12 Norte 24 Nordeste 0 1019.7 -- 46
2021-01-11 09:00:00 15.5 9 Norte 21 Norte 0 1019.1 -- 59
2021-01-11 08:00:00 15.4 10 Noroeste 20 Noroeste 0 1018.5 -- 53
2021-01-11 07:00:00 15.1 9 Noroeste 17 Norte 0 1018.1 -- 57
2021-01-11 06:00:00 15.6 12 Norte 27 Norte 0 1017.7 -- 57
2021-01-11 05:00:00 15.7 13 Norte 26 Norte 0 1017.6 -- 55
2021-01-11 04:00:00 15.4 10 Norte 29 Norte 0 1017.8 -- 63
2021-01-11 03:00:00 15.3 12 Norte 31 Norte 0 1018.2 -- 66
2021-01-11 02:00:00 15.4 11 Norte 23 Norte 0 1018.2 -- 67
2021-01-11 01:00:00 14.5 9 Norte 19 Oeste 0.6 1018 -- 78
2021-01-11 00:00:00 15.3 11 Norte 27 Norte 1.2 1018.6 -- 71
2021-01-10 23:00:00 15.3 13 Norte 32 Noroeste 0.8 1018.8 -- 74
2021-01-10 22:00:00 16.5 14 Noroeste 35 Noroeste 0 1018.1 -- 64
2021-01-10 21:00:00 16.9 13 Noroeste 34 Norte 0 1018.2 -- 56
2021-01-10 20:00:00 16.9 9 Noroeste 33 Norte 0 1017.5 -- 56
2021-01-10 19:00:00 17 11 Noroeste 32 Norte 0 1017.2 -- 58
2021-01-10 18:00:00 16.9 13 Noroeste 28 Noroeste 0 1017 -- 66
2021-01-10 17:00:00 16.6 16 Norte 37 Noroeste 1.4 1017.2 -- 68
2021-01-10 16:00:00 19.3 16 Noroeste 39 Noroeste 0 1016.8 -- 53
2021-01-10 15:00:00 20.2 19 Noroeste 43 Oeste 0 1016.9 -- 47
2021-01-10 14:00:00 19.7 24 Noroeste 47 Noroeste 0 1017.1 -- 44
2021-01-10 13:00:00 19.4 21 Norte 50 Noroeste 0 1018.2 -- 52
2021-01-10 12:00:00 18.1 16 Noroeste 41 Norte 0 1019 -- 57
2021-01-10 11:00:00 16.7 15 Noroeste 41 Noroeste 0 1019.3 -- 64
2021-01-10 10:00:00 17.5 20 Noroeste 39 Noroeste 0 1018.5 -- 59
2021-01-10 09:00:00 16.4 8 Noroeste 32 Norte 0 1018.2 -- 58
2021-01-10 08:00:00 15.2 4 Oeste 27 Norte 0 1017.4 -- 69
2021-01-10 07:00:00 15.1 10 Noroeste 26 Noroeste 0 1016.9 -- 73
2021-01-10 06:00:00 15.1 8 Noroeste 32 Norte 0 1016.6 -- 74
2021-01-10 05:00:00 16.1 18 Noroeste 39 Noroeste 0 1016.6 -- 59
2021-01-10 04:00:00 15.4 13 Noroeste 36 Noroeste 0 1016.8 -- 67
2021-01-10 03:00:00 14.8 14 Noroeste 28 Noroeste 0 1017 -- 69
2021-01-10 02:00:00 15.3 12 Noroeste 32 Noroeste 0 1017.2 -- 65
2021-01-10 01:00:00 15.7 10 Noroeste 23 Noroeste 0 1017.4 -- 60
2021-01-10 00:00:00 15.4 5 Noroeste 29 Norte 0 1017.6 -- 58
2021-01-09 23:00:00 15.6 15 Noroeste 31 Noroeste 0 1017.6 -- 59
2021-01-09 22:00:00 15.2 11 Norte 45 Noroeste 0 1017.6 -- 64
2021-01-09 21:00:00 15.4 18 Noroeste 31 Norte 0.2 1017.5 -- 69
2021-01-09 20:00:00 15.6 13 Noroeste 29 Noroeste 0 1016.8 -- 60
2021-01-09 19:00:00 15.9 21 Noroeste 43 Noroeste 0 1016.3 -- 56
2021-01-09 18:00:00 15.8 26 Noroeste 57 Norte 1.2 1015.4 -- 56
2021-01-09 17:00:00 16.9 28 Noroeste 51 Norte 0 1015.3 -- 55
2021-01-09 16:00:00 17.8 26 Noroeste 54 Norte 0 1015.1 -- 50
2021-01-09 15:00:00 17.6 17 Noroeste 38 Norte 0.2 1014.8 -- 57
2021-01-09 14:00:00 17.9 17 Norte 38 Norte 0.4 1014.8 -- 56
2021-01-09 13:00:00 16.5 18 Noroeste 44 Noroeste 0 1015.4 -- 57
2021-01-09 12:00:00 17.4 9 Norte 30 Norte 0 1015.7 -- 56
2021-01-09 11:00:00 14.5 5 Nordeste 18 Norte 0 1016.1 -- 75
2021-01-09 10:00:00 14.2 6 Noroeste 44 Oeste 0 1015.3 -- 75
2021-01-09 09:00:00 14 8 Noroeste 32 Norte 0 1014.3 -- 73
2021-01-09 08:00:00 14.9 14 Noroeste 33 Noroeste 0 1013.3 -- 61
2021-01-09 07:00:00 15 22 Noroeste 47 Noroeste 0 1012.6 -- 61
2021-01-09 06:00:00 14.3 19 Norte 34 Noroeste 0 1012.3 -- 72
2021-01-09 05:00:00 14.2 15 Noroeste 30 Noroeste 0 1012.5 -- 72
2021-01-09 04:00:00 13.6 8 Noroeste 28 Noroeste 0 1012.5 -- 78
2021-01-09 03:00:00 14.2 15 Noroeste 33 Noroeste 0 1012.1 -- 74
2021-01-09 02:00:00 15.1 12 Norte 27 Noroeste 0 1011.7 -- 65
2021-01-09 01:00:00 15.3 8 Noroeste 26 Noroeste 0 1011.4 -- 66
2021-01-09 00:00:00 15.7 14 Noroeste 33 Noroeste 0 1011.6 -- 67
2021-01-08 23:00:00 14.7 15 Norte 36 Norte 0.2 1011.5 -- 73
2021-01-08 22:00:00 15.2 15 Noroeste 30 Norte 0.6 1011.1 -- 69
2021-01-08 21:00:00 15.2 13 Noroeste 41 Noroeste 0.8 1010.5 -- 73
2021-01-08 20:00:00 14.5 10 Noroeste 36 Noroeste 2.8 1009.8 -- 81
2021-01-08 19:00:00 14.7 18 Noroeste 44 Noroeste 3.4 1009 -- 75
2021-01-08 18:00:00 15.7 13 Noroeste 30 Noroeste 3.2 1008.1 -- 73
2021-01-08 17:00:00 15.3 12 Noroeste 37 Noroeste 10 1007.7 -- 79
2021-01-08 16:00:00 15.8 12 Noroeste 33 Oeste 4.4 1007.1 -- 80
2021-01-08 15:00:00 18.1 13 Noroeste 37 Noroeste 0.2 1006.3 -- 67
2021-01-08 14:00:00 17.7 20 Noroeste 48 Norte 0 1006 -- 63
2021-01-08 13:00:00 17.5 23 Noroeste 51 Noroeste 0 1006.4 -- 68
2021-01-08 12:00:00 17.7 16 Norte 38 Noroeste 0.4 1006.4 -- 71
2021-01-08 11:00:00 16.2 10 Noroeste 49 Noroeste 7.2 1006.3 -- 83
2021-01-08 10:00:00 17.5 21 Noroeste 49 Noroeste 0.4 1005.4 -- 67
2021-01-08 09:00:00 17.9 16 Noroeste 38 Noroeste 0 1004 -- 68
2021-01-08 08:00:00 17.9 13 Noroeste 47 Oeste 0 1002.9 -- 68
2021-01-08 07:00:00 17.8 19 Noroeste 46 Noroeste 0.6 1001.6 -- 75
2021-01-08 06:00:00 18.3 18 Noroeste 54 Noroeste 0 1000.5 -- 70
2021-01-08 05:00:00 18.4 24 Noroeste 53 Noroeste 0.2 999.6 -- 74
2021-01-08 04:00:00 18.3 16 Noroeste 53 Noroeste 0.4 999.3 -- 75
2021-01-08 03:00:00 18.1 12 Noroeste 44 Noroeste 3.6 998.9 -- 84
2021-01-08 02:00:00 20.3 15 Oeste 42 Oeste 0 998.4 -- 60
2021-01-08 01:00:00 20.4 20 Oeste 52 Noroeste 0 997.8 -- 67
2021-01-08 00:00:00 20.7 15 Oeste 40 Noroeste 0 997.4 -- 67
2021-01-07 23:00:00 20.6 10 Nordeste 17 Nordeste 0 997.8 -- 74
2021-01-07 22:00:00 20.4 3 Nordeste 20 Sur 0 998.4 -- 78
2021-01-07 21:00:00 20.7 2 Nordeste 16 Sudoeste 0 998.1 -- 75
2021-01-07 20:00:00 21 5 Sudeste 30 Sur 0 997.8 -- 72
2021-01-07 19:00:00 21.6 5 Sudoeste 23 Sur 0 997.8 -- 69
2021-01-07 18:00:00 22.4 5 Sudeste 32 Sur 0 997.7 -- 65
2021-01-07 17:00:00 23.1 9 Sur 28 Sur 0 997.7 -- 66
2021-01-07 16:00:00 23 4 Nordeste 19 Sur 0 997.7 -- 67
2021-01-07 15:00:00 25 6 Sur 21 Sudeste 0 997.3 -- 58
2021-01-07 14:00:00 23.8 11 Sudeste 19 Sudeste 0 997.9 -- 63
2021-01-07 13:00:00 23.6 8 Este 22 Sudeste 0 998.7 -- 64
2021-01-07 12:00:00 22 6 Este 23 Este 0 999.6 -- 72
2021-01-07 11:00:00 20.3 9 Nordeste 17 Nordeste 0 999.7 -- 82
2021-01-07 10:00:00 20.1 10 Sur 21 Sur 0 1000.4 -- 82
2021-01-07 09:00:00 18.9 9 Norte -- -- 0 999.4 -- 80
2021-01-07 08:00:00 18.3 -- -- -- -- 0 -- -- 84
2021-01-07 07:00:00 18.4 -- -- -- -- 0 -- -- 85
2021-01-07 06:00:00 18.3 -- -- -- -- 0 -- -- 83
2021-01-07 05:00:00 18.2 -- -- -- -- 0 -- -- 86
2021-01-07 04:00:00 18.2 -- -- -- -- 0 -- -- 82
2021-01-07 03:00:00 18.6 -- -- -- -- 0 -- -- 81
2021-01-07 02:00:00 19 -- -- -- -- 0 -- -- 79
2021-01-07 01:00:00 19.2 -- -- -- -- 0 -- -- 83
2021-01-07 00:00:00 19.2 -- -- -- -- 0 -- -- 80
2021-01-06 23:00:00 19.7 -- -- -- -- 0 -- -- 75
2021-01-06 22:00:00 20.3 -- -- -- -- 0 -- -- 74
2021-01-06 21:00:00 21 -- -- -- -- 0 -- -- 69
2021-01-06 20:00:00 21.3 -- -- -- -- 0 -- -- 69
2021-01-06 19:00:00 22.5 -- -- -- -- 0 -- -- 62
2021-01-06 18:00:00 21.6 -- -- -- -- 0 -- -- 79
2021-01-06 17:00:00 22.6 -- -- -- -- 0 -- -- 74
2021-01-06 16:00:00 22.6 -- -- -- -- 0 -- -- 75
2021-01-06 15:00:00 23.2 -- -- -- -- 0 -- -- 69
2021-01-06 14:00:00 24.1 -- -- -- -- 0 -- -- 56
2021-01-06 13:00:00 22.2 -- -- -- -- 0 -- -- 76
2021-01-06 12:00:00 22.9 -- -- -- -- 0 -- -- 72
2021-01-06 11:00:00 22.6 5 Este 17 Nordeste 0 1001.3 -- 72
2021-01-06 10:00:00 21.5 9 Nordeste 17 Nordeste 0 1001.1 -- 77
2021-01-06 09:00:00 19.2 8 Norte 15 Norte 0 1000.4 -- 82
2021-01-06 08:00:00 19.3 4 Noroeste 19 Nordeste 0 1000 -- 80
2021-01-06 07:00:00 19.1 8 Norte 12 Norte 0 1000.1 -- 81
2021-01-06 06:00:00 18.9 5 Noroeste 11 Noroeste 0 1000.7 -- 79
2021-01-06 05:00:00 18.6 9 Noroeste 16 Oeste 0 1000.6 -- 78
2021-01-06 04:00:00 18.5 4 Sur 12 Oeste 0 1001.3 -- 78
2021-01-06 03:00:00 18.5 7 Oeste 16 Oeste 0 1002.1 -- 75
2021-01-06 02:00:00 18.6 8 Oeste 11 Oeste 0 1002.3 -- 76
2021-01-06 01:00:00 19 6 Oeste 15 Oeste 0 1003.2 -- 74
2021-01-06 00:00:00 19.1 11 Oeste 16 Oeste 0 1004.2 -- 74
2021-01-05 23:00:00 19.2 5 Oeste 13 Oeste 0 1004.2 -- 79
2021-01-05 22:00:00 19.6 5 Noroeste 9 Noroeste 0 1004.3 -- 81
2021-01-05 21:00:00 19.9 0 Calma 8 Sudeste 0 1004.8 -- 86
2021-01-05 20:00:00 20.1 3 Nordeste 11 Este 0 1004.6 -- 84
2021-01-05 19:00:00 20.6 7 Este 13 Nordeste 0 1004.3 -- 77
2021-01-05 18:00:00 21.1 7 Nordeste 12 Nordeste 0 1003.9 -- 69
2021-01-05 17:00:00 21.4 7 Nordeste 12 Este 0 1003.7 -- 73
2021-01-05 16:00:00 22.2 7 Este 10 Sur 0 1004 -- 64
2021-01-05 15:00:00 22.4 6 Sur 13 Sudeste 0 1003.8 -- 67
2021-01-05 14:00:00 23.2 9 Sudeste 20 Sur 0 1004.3 -- 60
2021-01-05 13:00:00 23.2 13 Sur 20 Sur 0 1005 -- 64
2021-01-05 12:00:00 21.7 13 Sur 34 Oeste 0 1005.7 -- 71
2021-01-05 11:00:00 21.4 5 Sudoeste 15 Sudoeste 0 1006.6 -- 66
2021-01-05 10:00:00 20.8 7 Sudoeste 15 Sudoeste 0 1006.9 -- 73
2021-01-05 09:00:00 19.6 8 Oeste 26 Noroeste 0 1006.2 -- 76
2021-01-05 08:00:00 19.4 15 Sudoeste 25 Sudoeste 0 1005.4 -- 69
2021-01-05 07:00:00 19.8 6 Sudoeste 30 Noroeste 0 1005 -- 72
2021-01-05 06:00:00 19.9 12 Oeste 39 Noroeste 0 1004.4 -- 73
2021-01-05 05:00:00 19.8 17 Noroeste 36 Oeste 0 1004.3 -- 73
2021-01-05 04:00:00 19.6 15 Noroeste 34 Noroeste 0 1004.3 -- 74
2021-01-05 03:00:00 18.2 5 Sudoeste 9 Sudoeste 0 1005.3 -- 84
2021-01-05 02:00:00 18.9 7 Oeste 24 Noroeste 0 1005.4 -- 84
2021-01-05 01:00:00 18.3 8 Norte 13 Norte 0 1005.6 -- 88
2021-01-05 00:00:00 18.5 7 Noroeste 13 Norte 0 1005.8 -- 86
2021-01-04 23:00:00 19.2 3 Norte 14 Nordeste 0 1006.2 -- 82
2021-01-04 22:00:00 19.2 3 Este 9 Norte 0 1006.2 -- 83
2021-01-04 21:00:00 19.1 5 Noroeste 15 Nordeste 0 1006.1 -- 84
2021-01-04 20:00:00 19.2 5 Norte 11 Este 0 1005.8 -- 84
2021-01-04 19:00:00 19.2 3 Este 19 Sur 0 1005.5 -- 83
2021-01-04 18:00:00 19.7 9 Sur 33 Sur 0 1005.5 -- 83
2021-01-04 17:00:00 19.5 13 Sur 37 Sur 0 1005.8 -- 82
2021-01-04 16:00:00 19.4 19 Sur 42 Sudoeste 0 1005.8 -- 81
2021-01-04 15:00:00 19.2 17 Sur 37 Sur 0 1005.9 -- 81
2021-01-04 14:00:00 18.9 17 Sur 33 Sur 0 1006.7 -- 83
2021-01-04 13:00:00 19 9 Sudoeste 30 Sur 0 1007.5 -- 83
2021-01-04 12:00:00 19 14 Sur 29 Sur 0 1008.3 -- 80
2021-01-04 11:00:00 18.5 9 Sudoeste 30 Sudoeste 0 1009.1 -- 82
2021-01-04 10:00:00 18.6 8 Sudoeste 21 Sudoeste 0 1009 -- 78
2021-01-04 09:00:00 18.3 9 Sudoeste 20 Sudoeste 0 1008.6 -- 74
2021-01-04 08:00:00 17.9 7 Sudoeste 15 Sudoeste 0 1008.2 -- 73
2021-01-04 07:00:00 17.6 6 Oeste 17 Sudoeste 0 1008 -- 74
2021-01-04 06:00:00 17.6 8 Sudoeste 16 Sudoeste 0 1007.9 -- 73
2021-01-04 05:00:00 17.6 7 Oeste 14 Sudoeste 0 1008.7 -- 72
2021-01-04 04:00:00 17.2 6 Oeste 10 Oeste 0 1009.3 -- 73
2021-01-04 03:00:00 17.4 6 Oeste 13 Oeste 0 1009.9 -- 72
2021-01-04 02:00:00 17 7 Oeste 13 Oeste 0 1009.7 -- 73
2021-01-04 01:00:00 16.7 5 Oeste 10 Oeste 0 1010 -- 75
2021-01-04 00:00:00 16.6 4 Oeste 15 Noroeste 0 1009.9 -- 76
2021-01-03 23:00:00 16.8 8 Oeste 13 Oeste 0 1011 -- 75
2021-01-03 22:00:00 17.3 6 Oeste 9 Oeste 0 1011 -- 74
2021-01-03 21:00:00 17.7 4 Oeste 10 Oeste 0 1011.3 -- 72
2021-01-03 20:00:00 17.8 3 Noroeste 10 Noroeste 0 1011 -- 72
2021-01-03 19:00:00 18.2 6 Sur 12 Sur 0 1010.7 -- 71
2021-01-03 18:00:00 18.3 6 Sudeste 17 Sudeste 0 1010.1 -- 69
2021-01-03 17:00:00 18.5 8 Sudeste 15 Sudeste 0 1009.8 -- 70
2021-01-03 16:00:00 18.8 7 Sudeste 13 Sudeste 0 1010.2 -- 64
2021-01-03 15:00:00 19.6 5 Sudeste 12 Este 0 1010.1 -- 67
2021-01-03 14:00:00 19 5 Este 10 Nordeste 0 1010.6 -- 66
2021-01-03 13:00:00 18.6 3 Este 7 Nordeste 0 1011.8 -- 66
2021-01-03 12:00:00 18.4 3 Norte 7 Norte 0 1012.6 -- 65
2021-01-03 11:00:00 18.1 2 Oeste 8 Oeste 0 1013.2 -- 68
2021-01-03 10:00:00 17.5 6 Oeste 10 Oeste 0 1013.4 -- 70
2021-01-03 09:00:00 17.3 5 Oeste 10 Oeste 0 1012.6 -- 67
2021-01-03 08:00:00 17.2 4 Oeste 7 Oeste 0 1011.7 -- 66
2021-01-03 07:00:00 17.6 3 Norte 9 Norte 0 1011.3 -- 64
2021-01-03 06:00:00 18 6 Norte 16 Este 0 1010.9 -- 62
2021-01-03 05:00:00 17.9 5 Este 16 Este 0 1011 -- 64
2021-01-03 04:00:00 18 7 Este 20 Este 0 1011.3 -- 64
2021-01-03 03:00:00 18.1 11 Este 18 Este 0 1011.5 -- 65
2021-01-03 02:00:00 18.1 8 Este 22 Este 0 1011.8 -- 64
2021-01-03 01:00:00 18 10 Este 20 Este 0 1011.9 -- 65
2021-01-03 00:00:00 18 12 Este 20 Este 0 1012.6 -- 67
2021-01-02 23:00:00 18.1 12 Este 19 Este 0 1012.8 -- 67
2021-01-02 22:00:00 18.1 10 Este 21 Este 0 1012.7 -- 64
2021-01-02 21:00:00 17.9 8 Este 17 Nordeste 0 1012.3 -- 67
2021-01-02 20:00:00 17.9 9 Este 22 Nordeste 0 1012.1 -- 67
2021-01-02 19:00:00 18 14 Este 24 Este 0 1012 -- 68
2021-01-02 18:00:00 18.2 15 Este 25 Este 0 1012.2 -- 71
2021-01-02 17:00:00 19 11 Este 21 Este 0 1012.2 -- 56
2021-01-02 16:00:00 19.3 12 Este 26 Este 0 1012.2 -- 56
2021-01-02 15:00:00 19.1 11 Este 21 Este 0 1012.4 -- 55
2021-01-02 14:00:00 19.6 11 Este 22 Este 0 1012.9 -- 51
2021-01-02 13:00:00 19.4 13 Este 24 Este 0 1013.6 -- 52